createdAt,value
2018-05-06T00:00:11.447Z,0.00
2018-05-06T00:01:11.476Z,0.00
2018-05-06T00:02:11.513Z,0.00
2018-05-06T00:03:11.544Z,0.00
2018-05-06T00:04:11.575Z,0.00
2018-05-06T00:05:11.610Z,0.00
2018-05-06T00:06:11.643Z,0.00
2018-05-06T00:07:11.676Z,0.00
2018-05-06T00:08:11.719Z,0.00
2018-05-06T00:09:11.744Z,0.00
2018-05-06T00:10:11.777Z,0.00
2018-05-06T00:11:11.809Z,0.00
2018-05-06T00:12:11.842Z,0.00
2018-05-06T00:13:11.876Z,0.00
2018-05-06T00:14:11.908Z,0.00
2018-05-06T00:15:11.953Z,0.00
2018-05-06T00:16:11.975Z,0.00
2018-05-06T00:17:12.008Z,0.00
2018-05-06T00:18:12.049Z,0.00
2018-05-06T00:19:12.075Z,0.00
2018-05-06T00:20:12.107Z,0.00
2018-05-06T00:21:12.142Z,0.00
2018-05-06T00:22:12.175Z,0.00
2018-05-06T00:23:12.212Z,0.00
2018-05-06T00:24:12.241Z,0.00
2018-05-06T00:25:12.271Z,0.00
2018-05-06T00:26:12.307Z,0.00
2018-05-06T00:27:12.341Z,0.00
2018-05-06T00:28:12.370Z,0.00
2018-05-06T00:29:12.412Z,0.00
2018-05-06T00:30:12.437Z,0.00
2018-05-06T00:31:12.469Z,0.00
2018-05-06T00:32:12.504Z,0.00
2018-05-06T00:33:12.535Z,0.00
2018-05-06T00:34:12.567Z,0.00
2018-05-06T00:35:12.600Z,0.00
2018-05-06T00:36:12.635Z,0.00
2018-05-06T00:37:12.670Z,0.00
2018-05-06T00:38:12.698Z,0.00
2018-05-06T00:39:12.739Z,0.00
2018-05-06T00:40:12.764Z,0.00
2018-05-06T00:41:12.798Z,0.00
2018-05-06T00:42:12.833Z,0.00
2018-05-06T00:43:12.864Z,0.00
2018-05-06T00:44:12.895Z,0.00
2018-05-06T00:45:12.934Z,0.00
2018-05-06T00:46:12.962Z,0.00
2018-05-06T00:47:13.009Z,0.00
2018-05-06T00:48:13.026Z,0.00
2018-05-06T00:49:13.062Z,0.00
2018-05-06T00:50:13.093Z,0.00
2018-05-06T00:51:13.127Z,0.00
2018-05-06T00:52:13.163Z,0.00
2018-05-06T00:53:13.192Z,0.00
2018-05-06T00:54:13.225Z,0.00
2018-05-06T00:55:13.258Z,0.00
2018-05-06T00:56:13.290Z,0.00
2018-05-06T00:57:13.330Z,0.00
2018-05-06T00:58:13.355Z,0.00
2018-05-06T00:59:13.389Z,0.00
2018-05-06T01:00:13.425Z,0.00
2018-05-06T01:01:13.453Z,0.00
2018-05-06T01:02:13.487Z,0.00
2018-05-06T01:03:13.521Z,0.00
2018-05-06T01:04:13.551Z,0.00
2018-05-06T01:05:13.584Z,0.00
2018-05-06T01:06:13.616Z,0.00
2018-05-06T01:07:13.651Z,0.00
2018-05-06T01:08:13.686Z,0.00
2018-05-06T01:09:13.721Z,0.00
2018-05-06T01:10:13.756Z,0.00
2018-05-06T01:11:13.781Z,0.00
2018-05-06T01:12:13.811Z,0.00
2018-05-06T01:13:13.844Z,0.00
2018-05-06T01:14:13.877Z,0.00
2018-05-06T01:15:13.910Z,0.00
2018-05-06T01:16:13.943Z,0.00
2018-05-06T01:17:13.975Z,0.00
2018-05-06T01:18:14.009Z,0.00
2018-05-06T01:19:14.042Z,0.00
2018-05-06T01:20:14.072Z,0.00
2018-05-06T01:21:14.105Z,0.00
2018-05-06T01:22:14.142Z,0.00
2018-05-06T01:23:14.171Z,0.00
2018-05-06T01:24:14.203Z,0.00
2018-05-06T01:25:14.235Z,0.00
2018-05-06T01:26:14.372Z,0.00
2018-05-06T01:27:14.305Z,0.00
2018-05-06T01:28:14.333Z,0.00
2018-05-06T01:29:14.365Z,0.00
2018-05-06T01:30:14.398Z,0.00
2018-05-06T01:31:14.432Z,0.00
2018-05-06T01:32:14.465Z,0.00
2018-05-06T01:33:14.494Z,0.00
2018-05-06T01:34:14.527Z,0.00
2018-05-06T01:35:14.560Z,0.00
2018-05-06T01:36:14.594Z,0.00
2018-05-06T01:37:14.624Z,0.00
2018-05-06T01:38:14.659Z,0.00
2018-05-06T01:39:14.691Z,0.00
2018-05-06T01:40:14.723Z,0.00
2018-05-06T01:41:14.755Z,0.00
2018-05-06T01:42:14.787Z,0.00
2018-05-06T01:43:14.820Z,0.00
2018-05-06T01:44:14.850Z,0.00
2018-05-06T01:45:14.884Z,0.00
2018-05-06T01:46:14.916Z,0.00
2018-05-06T01:47:14.948Z,0.00
2018-05-06T01:48:14.978Z,0.00
2018-05-06T01:49:15.019Z,0.00
2018-05-06T01:50:15.044Z,0.00
2018-05-06T01:51:15.077Z,0.00
2018-05-06T01:52:15.108Z,0.00
2018-05-06T01:53:15.141Z,0.00
2018-05-06T01:54:15.173Z,0.00
2018-05-06T01:55:15.207Z,0.00
2018-05-06T01:56:15.237Z,0.00
2018-05-06T01:57:15.274Z,0.00
2018-05-06T01:58:15.304Z,0.00
2018-05-06T01:59:15.344Z,0.00
2018-05-06T02:00:15.374Z,0.00
2018-05-06T02:01:15.399Z,0.00
2018-05-06T02:02:15.432Z,0.00
2018-05-06T02:03:15.464Z,0.00
2018-05-06T02:04:15.494Z,0.00
2018-05-06T02:05:15.528Z,0.00
2018-05-06T02:06:15.564Z,0.00
2018-05-06T02:07:15.598Z,0.00
2018-05-06T02:08:15.623Z,0.00
2018-05-06T02:09:15.693Z,0.00
2018-05-06T02:10:15.689Z,0.00
2018-05-06T02:11:15.721Z,0.00
2018-05-06T02:12:15.754Z,0.00
2018-05-06T02:13:15.795Z,0.00
2018-05-06T02:14:15.819Z,0.00
2018-05-06T02:15:15.851Z,0.00
2018-05-06T02:16:15.886Z,0.00
2018-05-06T02:17:15.918Z,0.00
2018-05-06T02:18:15.948Z,0.00
2018-05-06T02:19:15.981Z,0.00
2018-05-06T02:20:16.021Z,0.00
2018-05-06T02:21:16.045Z,0.00
2018-05-06T02:22:16.078Z,0.00
2018-05-06T02:23:16.115Z,0.00
2018-05-06T02:24:16.140Z,0.00
2018-05-06T02:25:16.174Z,0.00
2018-05-06T02:26:16.205Z,0.00
2018-05-06T02:27:16.245Z,0.00
2018-05-06T02:28:16.268Z,0.00
2018-05-06T02:29:16.301Z,0.00
2018-05-06T02:30:16.410Z,0.00
2018-05-06T02:31:16.368Z,0.00
2018-05-06T02:32:16.397Z,0.00
2018-05-06T02:33:16.429Z,0.00
2018-05-06T02:34:16.461Z,0.00
2018-05-06T02:35:16.508Z,0.00
2018-05-06T02:36:16.529Z,0.00
2018-05-06T02:37:16.558Z,0.00
2018-05-06T02:38:16.596Z,0.00
2018-05-06T02:39:16.629Z,0.00
2018-05-06T02:40:16.659Z,0.00
2018-05-06T02:41:16.688Z,0.00
2018-05-06T02:42:16.731Z,0.00
2018-05-06T02:43:16.767Z,0.00
2018-05-06T02:44:16.790Z,0.00
2018-05-06T02:45:16.815Z,0.00
2018-05-06T02:46:16.849Z,0.00
2018-05-06T02:47:16.881Z,0.00
2018-05-06T02:48:16.913Z,0.00
2018-05-06T02:49:16.944Z,0.00
2018-05-06T02:50:16.986Z,0.00
2018-05-06T02:51:17.009Z,0.00
2018-05-06T02:52:17.044Z,0.00
2018-05-06T02:53:17.073Z,0.00
2018-05-06T02:54:17.109Z,0.00
2018-05-06T02:55:17.139Z,0.00
2018-05-06T02:56:17.167Z,0.00
2018-05-06T02:57:17.199Z,0.00
2018-05-06T02:58:17.233Z,0.00
2018-05-06T02:59:17.273Z,0.00
2018-05-06T03:00:17.295Z,0.00
2018-05-06T03:01:17.328Z,0.00
2018-05-06T03:02:17.364Z,0.00
2018-05-06T03:03:17.394Z,0.00
2018-05-06T03:04:17.424Z,0.00
2018-05-06T03:05:17.455Z,0.00
2018-05-06T03:06:17.489Z,0.00
2018-05-06T03:07:17.521Z,0.00
2018-05-06T03:08:17.552Z,0.00
2018-05-06T03:09:17.583Z,0.00
2018-05-06T03:10:17.615Z,0.00
2018-05-06T03:11:17.646Z,0.00
2018-05-06T03:12:17.678Z,0.00
2018-05-06T03:13:17.713Z,0.00
2018-05-06T03:14:17.745Z,0.00
2018-05-06T03:15:17.773Z,0.00
2018-05-06T03:16:17.806Z,0.00
2018-05-06T03:17:17.839Z,0.00
2018-05-06T03:18:17.870Z,0.00
2018-05-06T03:19:17.904Z,0.00
2018-05-06T03:20:17.933Z,0.00
2018-05-06T03:21:17.966Z,0.00
2018-05-06T03:22:17.998Z,0.00
2018-05-06T03:23:18.031Z,0.00
2018-05-06T03:24:18.061Z,0.00
2018-05-06T03:25:18.095Z,0.00
2018-05-06T03:26:18.126Z,0.00
2018-05-06T03:27:18.157Z,0.00
2018-05-06T03:28:18.189Z,0.00
2018-05-06T03:29:18.220Z,0.00
2018-05-06T03:30:18.253Z,0.00
2018-05-06T03:31:18.285Z,0.00
2018-05-06T03:32:18.316Z,0.00
2018-05-06T03:33:18.348Z,0.00
2018-05-06T03:34:18.380Z,5.63
2018-05-06T03:35:18.412Z,5.63
2018-05-06T03:36:18.443Z,5.63
2018-05-06T03:37:18.476Z,5.63
2018-05-06T03:38:18.508Z,5.63
2018-05-06T03:39:18.540Z,5.63
2018-05-06T03:40:18.569Z,5.63
2018-05-06T03:41:18.603Z,11.25
2018-05-06T03:42:18.639Z,11.25
2018-05-06T03:43:18.666Z,11.25
2018-05-06T03:44:18.697Z,11.25
2018-05-06T03:45:18.733Z,11.25
2018-05-06T03:46:18.762Z,16.88
2018-05-06T03:47:18.791Z,16.88
2018-05-06T03:48:18.823Z,16.88
2018-05-06T03:49:18.856Z,16.88
2018-05-06T03:50:18.893Z,22.50
2018-05-06T03:51:18.920Z,22.50
2018-05-06T03:52:18.951Z,22.50
2018-05-06T03:53:18.983Z,22.50
2018-05-06T03:54:19.020Z,28.13
2018-05-06T03:55:19.047Z,28.13
2018-05-06T03:56:19.077Z,28.13
2018-05-06T03:57:19.109Z,33.75
2018-05-06T03:58:19.140Z,33.75
2018-05-06T03:59:19.182Z,33.75
2018-05-06T04:00:19.206Z,39.38
2018-05-06T04:01:19.240Z,39.38
2018-05-06T04:02:19.269Z,39.38
2018-05-06T04:03:19.298Z,45.00
2018-05-06T04:04:19.332Z,45.00
2018-05-06T04:05:19.362Z,45.00
2018-05-06T04:06:19.393Z,50.63
2018-05-06T04:07:19.427Z,50.63
2018-05-06T04:08:19.457Z,50.63
2018-05-06T04:09:19.494Z,56.25
2018-05-06T04:10:19.522Z,56.25
2018-05-06T04:11:19.556Z,56.25
2018-05-06T04:12:19.584Z,61.88
2018-05-06T04:13:19.616Z,61.88
2018-05-06T04:14:19.648Z,61.88
2018-05-06T04:15:19.684Z,67.50
2018-05-06T04:16:19.720Z,67.50
2018-05-06T04:17:19.743Z,67.50
2018-05-06T04:18:19.774Z,73.13
2018-05-06T04:19:19.814Z,73.13
2018-05-06T04:20:19.839Z,73.13
2018-05-06T04:21:19.907Z,78.75
2018-05-06T04:22:19.900Z,78.75
2018-05-06T04:23:19.932Z,78.75
2018-05-06T04:24:19.971Z,84.38
2018-05-06T04:25:19.994Z,84.38
2018-05-06T04:26:20.026Z,84.38
2018-05-06T04:27:20.058Z,90.00
2018-05-06T04:28:20.090Z,90.00
2018-05-06T04:29:20.121Z,90.00
2018-05-06T04:30:20.156Z,95.63
2018-05-06T04:31:20.185Z,95.63
2018-05-06T04:32:20.216Z,95.63
2018-05-06T04:33:20.248Z,101.25
2018-05-06T04:34:20.279Z,101.25
2018-05-06T04:35:20.312Z,101.25
2018-05-06T04:36:20.350Z,101.25
2018-05-06T04:37:20.378Z,106.88
2018-05-06T04:38:20.409Z,106.88
2018-05-06T04:39:20.439Z,106.88
2018-05-06T04:40:20.470Z,112.50
2018-05-06T04:41:20.503Z,112.50
2018-05-06T04:42:20.533Z,112.50
2018-05-06T04:43:20.567Z,112.50
2018-05-06T04:44:20.680Z,118.13
2018-05-06T04:45:20.632Z,118.13
2018-05-06T04:46:20.662Z,118.13
2018-05-06T04:47:20.708Z,118.13
2018-05-06T04:48:20.728Z,123.75
2018-05-06T04:49:20.756Z,123.75
2018-05-06T04:50:20.791Z,123.75
2018-05-06T04:51:20.822Z,123.75
2018-05-06T04:52:20.852Z,129.38
2018-05-06T04:53:20.884Z,129.38
2018-05-06T04:54:20.915Z,129.38
2018-05-06T04:55:20.947Z,129.38
2018-05-06T04:56:20.979Z,135.00
2018-05-06T04:57:21.013Z,135.00
2018-05-06T04:58:21.051Z,135.00
2018-05-06T04:59:21.076Z,135.00
2018-05-06T05:00:21.107Z,135.00
2018-05-06T05:01:21.139Z,140.63
2018-05-06T05:02:21.171Z,140.63
2018-05-06T05:03:21.206Z,140.63
2018-05-06T05:04:21.235Z,140.63
2018-05-06T05:05:21.267Z,146.25
2018-05-06T05:06:21.298Z,146.25
2018-05-06T05:07:21.331Z,146.25
2018-05-06T05:08:21.372Z,146.25
2018-05-06T05:09:21.396Z,146.25
2018-05-06T05:10:21.427Z,151.88
2018-05-06T05:11:21.460Z,151.88
2018-05-06T05:12:21.491Z,151.88
2018-05-06T05:13:21.523Z,151.88
2018-05-06T05:14:21.557Z,157.50
2018-05-06T05:15:21.588Z,157.50
2018-05-06T05:16:21.621Z,157.50
2018-05-06T05:17:21.653Z,151.88
2018-05-06T05:18:21.684Z,157.50
2018-05-06T05:19:21.717Z,157.50
2018-05-06T05:20:21.749Z,157.50
2018-05-06T05:21:21.782Z,157.50
2018-05-06T05:22:21.814Z,163.13
2018-05-06T05:23:21.856Z,163.13
2018-05-06T05:24:21.878Z,163.13
2018-05-06T05:25:21.910Z,163.13
2018-05-06T05:26:21.945Z,163.13
2018-05-06T05:27:21.976Z,168.75
2018-05-06T05:28:22.008Z,168.75
2018-05-06T05:29:22.050Z,168.75
2018-05-06T05:30:22.075Z,168.75
2018-05-06T05:31:22.110Z,168.75
2018-05-06T05:32:22.137Z,174.38
2018-05-06T05:33:22.168Z,174.38
2018-05-06T05:34:22.274Z,174.38
2018-05-06T05:35:22.236Z,174.38
2018-05-06T05:36:22.266Z,174.38
2018-05-06T05:38:22.333Z,180.00
2018-05-06T05:39:22.366Z,180.00
2018-05-06T05:40:22.396Z,180.00
2018-05-06T05:41:22.432Z,180.00
2018-05-06T05:42:22.462Z,180.00
2018-05-06T05:43:22.496Z,180.00
2018-05-06T05:44:22.530Z,185.63
2018-05-06T05:45:22.561Z,185.63
2018-05-06T05:46:22.594Z,185.63
2018-05-06T05:47:22.626Z,185.63
2018-05-06T05:48:22.660Z,185.63
2018-05-06T05:49:22.692Z,185.63
2018-05-06T05:50:22.728Z,185.63
2018-05-06T05:51:22.759Z,191.25
2018-05-06T05:52:22.791Z,196.88
2018-05-06T05:53:22.824Z,191.25
2018-05-06T05:54:22.857Z,191.25
2018-05-06T05:55:22.892Z,191.25
2018-05-06T05:56:22.927Z,191.25
2018-05-06T05:57:22.957Z,191.25
2018-05-06T05:58:22.990Z,191.25
2018-05-06T05:59:23.025Z,191.25
2018-05-06T06:00:23.060Z,191.25
2018-05-06T06:01:23.163Z,191.25
2018-05-06T06:02:23.125Z,191.25
2018-05-06T06:03:23.160Z,191.25
2018-05-06T06:04:23.197Z,191.25
2018-05-06T06:05:23.225Z,191.25
2018-05-06T06:06:23.259Z,196.88
2018-05-06T06:07:23.291Z,202.50
2018-05-06T06:08:23.330Z,196.88
2018-05-06T06:09:23.356Z,196.88
2018-05-06T06:10:23.389Z,196.88
2018-05-06T06:11:23.426Z,196.88
2018-05-06T06:12:23.457Z,196.88
2018-05-06T06:13:23.493Z,196.88
2018-05-06T06:14:23.526Z,196.88
2018-05-06T06:15:23.561Z,196.88
2018-05-06T06:16:23.595Z,196.88
2018-05-06T06:17:23.625Z,196.88
2018-05-06T06:18:23.665Z,196.88
2018-05-06T06:19:23.693Z,202.50
2018-05-06T06:20:23.727Z,202.50
2018-05-06T06:21:23.770Z,202.50
2018-05-06T06:22:23.796Z,202.50
2018-05-06T06:23:23.831Z,202.50
2018-05-06T06:24:23.866Z,202.50
2018-05-06T06:25:23.898Z,202.50
2018-05-06T06:26:24.005Z,202.50
2018-05-06T06:27:23.967Z,202.50
2018-05-06T06:28:24.002Z,202.50
2018-05-06T06:29:24.037Z,202.50
2018-05-06T06:30:24.069Z,202.50
2018-05-06T06:31:24.106Z,202.50
2018-05-06T06:32:24.138Z,202.50
2018-05-06T06:33:24.182Z,202.50
2018-05-06T06:34:24.210Z,202.50
2018-05-06T06:35:24.250Z,202.50
2018-05-06T06:36:24.282Z,202.50
2018-05-06T06:37:24.314Z,202.50
2018-05-06T06:38:24.401Z,202.50
2018-05-06T06:39:24.387Z,202.50
2018-05-06T06:40:24.416Z,208.13
2018-05-06T06:41:24.465Z,208.13
2018-05-06T06:42:24.487Z,208.13
2018-05-06T06:43:24.527Z,208.13
2018-05-06T06:44:24.562Z,208.13
2018-05-06T06:45:24.594Z,208.13
2018-05-06T06:46:24.627Z,208.13
2018-05-06T06:47:24.671Z,208.13
2018-05-06T06:48:24.696Z,208.13
2018-05-06T06:49:24.732Z,208.13
2018-05-06T06:50:24.768Z,208.13
2018-05-06T06:51:24.802Z,208.13
2018-05-06T06:52:24.845Z,208.13
2018-05-06T06:53:24.873Z,208.13
2018-05-06T06:54:24.907Z,208.13
2018-05-06T06:55:24.945Z,208.13
2018-05-06T06:56:24.979Z,208.13
2018-05-06T06:57:25.014Z,208.13
2018-05-06T06:58:25.051Z,208.13
2018-05-06T06:59:25.087Z,208.13
2018-05-06T07:00:25.123Z,208.13
2018-05-06T07:01:25.158Z,213.75
2018-05-06T07:02:25.189Z,208.13
2018-05-06T07:03:25.232Z,213.75
2018-05-06T07:04:25.262Z,208.13
2018-05-06T07:05:25.300Z,208.13
2018-05-06T07:07:25.371Z,208.13
2018-05-06T07:08:25.406Z,208.13
2018-05-06T07:09:25.446Z,208.13
2018-05-06T07:10:25.481Z,208.13
2018-05-06T07:11:25.632Z,208.13
2018-05-06T07:12:25.550Z,208.13
2018-05-06T07:13:25.595Z,208.13
2018-05-06T07:14:25.627Z,208.13
2018-05-06T07:15:25.659Z,208.13
2018-05-06T07:16:25.694Z,208.13
2018-05-06T07:17:25.730Z,208.13
2018-05-06T07:18:25.766Z,208.13
2018-05-06T07:19:25.801Z,208.13
2018-05-06T07:20:25.839Z,208.13
2018-05-06T07:22:25.910Z,208.13
2018-05-06T07:23:25.947Z,208.13
2018-05-06T07:24:25.990Z,208.13
2018-05-06T07:25:26.019Z,208.13
2018-05-06T07:26:26.054Z,208.13
2018-05-06T07:27:26.092Z,208.13
2018-05-06T07:28:26.128Z,208.13
2018-05-06T07:29:26.164Z,208.13
2018-05-06T07:30:26.206Z,208.13
2018-05-06T07:31:26.238Z,208.13
2018-05-06T07:32:26.274Z,208.13
2018-05-06T07:33:26.314Z,208.13
2018-05-06T07:34:26.350Z,208.13
2018-05-06T07:35:26.388Z,208.13
2018-05-06T07:36:26.421Z,208.13
2018-05-06T07:37:26.459Z,208.13
2018-05-06T07:38:26.494Z,208.13
2018-05-06T07:39:26.530Z,208.13
2018-05-06T07:40:26.616Z,208.13
2018-05-06T07:41:26.655Z,208.13
2018-05-06T07:42:26.641Z,208.13
2018-05-06T07:43:26.679Z,208.13
2018-05-06T07:44:26.713Z,208.13
2018-05-06T07:45:26.749Z,208.13
2018-05-06T07:46:26.790Z,208.13
2018-05-06T07:47:26.826Z,208.13
2018-05-06T07:48:26.862Z,208.13
2018-05-06T07:49:26.900Z,208.13
2018-05-06T07:50:26.935Z,208.13
2018-05-06T07:51:26.979Z,208.13
2018-05-06T07:52:27.007Z,208.13
2018-05-06T07:53:27.045Z,208.13
2018-05-06T07:54:27.083Z,208.13
2018-05-06T07:55:27.120Z,208.13
2018-05-06T07:56:27.159Z,208.13
2018-05-06T07:57:27.195Z,208.13
2018-05-06T07:58:27.277Z,208.13
2018-05-06T07:59:27.279Z,213.75
2018-05-06T08:00:27.305Z,208.13
2018-05-06T08:01:27.344Z,208.13
2018-05-06T08:02:27.386Z,208.13
2018-05-06T08:03:27.420Z,208.13
2018-05-06T08:04:27.460Z,208.13
2018-05-06T08:05:27.493Z,208.13
2018-05-06T08:06:27.536Z,208.13
2018-05-06T08:07:27.568Z,208.13
2018-05-06T08:08:27.614Z,208.13
2018-05-06T08:09:27.646Z,208.13
2018-05-06T08:10:27.684Z,208.13
2018-05-06T08:11:27.723Z,208.13
2018-05-06T08:12:27.755Z,208.13
2018-05-06T08:13:27.796Z,208.13
2018-05-06T08:14:27.831Z,208.13
2018-05-06T08:15:27.871Z,208.13
2018-05-06T08:16:27.961Z,208.13
2018-05-06T08:17:27.945Z,208.13
2018-05-06T08:18:27.983Z,208.13
2018-05-06T08:19:28.022Z,213.75
2018-05-06T08:20:28.057Z,208.13
2018-05-06T08:21:28.097Z,208.13
2018-05-06T08:22:28.132Z,208.13
2018-05-06T08:23:28.179Z,208.13
2018-05-06T08:24:28.215Z,213.75
2018-05-06T08:25:28.251Z,208.13
2018-05-06T08:26:28.284Z,208.13
2018-05-06T08:27:28.321Z,208.13
2018-05-06T08:28:28.358Z,208.13
2018-05-06T08:29:28.396Z,208.13
2018-05-06T08:30:28.435Z,208.13
2018-05-06T08:31:28.473Z,208.13
2018-05-06T08:32:28.518Z,208.13
2018-05-06T08:33:28.551Z,208.13
2018-05-06T08:34:28.586Z,208.13
2018-05-06T08:35:28.626Z,208.13
2018-05-06T08:36:28.662Z,213.75
2018-05-06T08:37:28.743Z,213.75
2018-05-06T08:38:28.738Z,208.13
2018-05-06T08:39:28.790Z,213.75
2018-05-06T08:40:28.813Z,208.13
2018-05-06T08:41:28.853Z,208.13
2018-05-06T08:42:28.890Z,208.13
2018-05-06T08:43:28.931Z,208.13
2018-05-06T08:44:28.969Z,208.13
2018-05-06T08:45:29.003Z,208.13
2018-05-06T08:46:29.045Z,213.75
2018-05-06T08:47:29.086Z,208.13
2018-05-06T08:48:29.125Z,208.13
2018-05-06T08:49:29.168Z,208.13
2018-05-06T08:50:29.196Z,208.13
2018-05-06T08:51:29.325Z,208.13
2018-05-06T08:52:29.278Z,213.75
2018-05-06T08:54:29.349Z,208.13
2018-05-06T08:55:29.386Z,213.75
2018-05-06T08:56:29.424Z,213.75
2018-05-06T08:57:29.463Z,213.75
2018-05-06T08:58:29.503Z,208.13
2018-05-06T08:59:29.539Z,208.13
2018-05-06T09:00:29.580Z,208.13
2018-05-06T09:01:29.623Z,208.13
2018-05-06T09:02:29.653Z,213.75
2018-05-06T09:03:29.693Z,208.13
2018-05-06T09:04:29.732Z,208.13
2018-05-06T09:05:29.769Z,208.13
2018-05-06T09:06:29.811Z,208.13
2018-05-06T09:07:29.847Z,208.13
2018-05-06T09:08:29.889Z,208.13
2018-05-06T09:09:29.923Z,208.13
2018-05-06T09:10:29.961Z,208.13
2018-05-06T09:11:30.006Z,208.13
2018-05-06T09:12:30.037Z,208.13
2018-05-06T09:13:30.081Z,213.75
2018-05-06T09:14:30.123Z,208.13
2018-05-06T09:15:30.154Z,208.13
2018-05-06T09:16:30.192Z,208.13
2018-05-06T09:17:30.231Z,208.13
2018-05-06T09:18:30.269Z,208.13
2018-05-06T09:19:30.308Z,208.13
2018-05-06T09:20:30.347Z,213.75
2018-05-06T09:21:30.384Z,208.13
2018-05-06T09:22:30.423Z,213.75
2018-05-06T09:23:30.462Z,208.13
2018-05-06T09:24:30.532Z,208.13
2018-05-06T09:25:30.691Z,208.13
2018-05-06T09:26:30.577Z,208.13
2018-05-06T09:27:30.627Z,208.13
2018-05-06T09:28:30.655Z,208.13
2018-05-06T09:29:30.692Z,208.13
2018-05-06T09:30:30.734Z,208.13
2018-05-06T09:31:30.771Z,208.13
2018-05-06T09:32:30.809Z,208.13
2018-05-06T09:33:30.848Z,208.13
2018-05-06T09:34:30.923Z,213.75
2018-05-06T09:35:30.924Z,208.13
2018-05-06T09:36:30.965Z,208.13
2018-05-06T09:37:31.004Z,208.13
2018-05-06T09:38:31.044Z,213.75
2018-05-06T09:39:31.084Z,208.13
2018-05-06T09:40:31.124Z,208.13
2018-05-06T09:41:31.158Z,208.13
2018-05-06T09:42:31.196Z,208.13
2018-05-06T09:43:31.287Z,208.13
2018-05-06T09:44:31.274Z,208.13
2018-05-06T09:45:31.312Z,208.13
2018-05-06T09:46:31.425Z,208.13
2018-05-06T09:47:31.456Z,208.13
2018-05-06T09:48:32.371Z,208.13
2018-05-06T09:50:31.510Z,213.75
2018-05-06T09:51:31.553Z,208.13
2018-05-06T09:52:31.587Z,208.13
2018-05-06T09:53:31.624Z,208.13
2018-05-06T09:54:31.666Z,208.13
2018-05-06T09:55:31.711Z,208.13
2018-05-06T09:56:31.749Z,208.13
2018-05-06T09:57:31.785Z,208.13
2018-05-06T09:58:31.820Z,208.13
2018-05-06T09:59:31.863Z,208.13
2018-05-06T10:00:31.899Z,208.13
2018-05-06T10:01:31.936Z,208.13
2018-05-06T10:02:31.976Z,208.13
2018-05-06T10:03:32.014Z,208.13
2018-05-06T10:04:32.055Z,208.13
2018-05-06T10:05:32.092Z,208.13
2018-05-06T10:06:32.132Z,208.13
2018-05-06T10:07:32.170Z,208.13
2018-05-06T10:08:32.210Z,208.13
2018-05-06T10:09:32.258Z,208.13
2018-05-06T10:10:32.287Z,208.13
2018-05-06T10:11:32.327Z,208.13
2018-05-06T10:12:32.364Z,208.13
2018-05-06T10:13:32.406Z,208.13
2018-05-06T10:14:32.444Z,208.13
2018-05-06T10:15:32.491Z,208.13
2018-05-06T10:16:32.528Z,208.13
2018-05-06T10:17:32.565Z,213.75
2018-05-06T10:18:32.611Z,213.75
2018-05-06T10:19:32.642Z,213.75
2018-05-06T10:20:32.678Z,213.75
2018-05-06T10:21:32.719Z,213.75
2018-05-06T10:23:32.798Z,213.75
2018-05-06T10:24:32.836Z,219.38
2018-05-06T10:25:32.876Z,213.75
2018-05-06T10:26:32.915Z,213.75
2018-05-06T10:27:33.005Z,213.75
2018-05-06T10:29:33.033Z,213.75
2018-05-06T10:30:33.080Z,213.75
2018-05-06T10:31:33.112Z,213.75
2018-05-06T10:32:33.159Z,213.75
2018-05-06T10:33:33.189Z,213.75
2018-05-06T10:34:33.230Z,213.75
2018-05-06T10:35:33.269Z,213.75
2018-05-06T10:36:33.316Z,213.75
2018-05-06T10:37:33.448Z,213.75
2018-05-06T10:38:33.406Z,213.75
2018-05-06T10:39:33.427Z,213.75
2018-05-06T10:40:33.467Z,213.75
2018-05-06T10:41:33.511Z,213.75
2018-05-06T10:42:33.548Z,219.38
2018-05-06T10:43:33.586Z,219.38
2018-05-06T10:44:33.715Z,219.38
2018-05-06T10:45:33.673Z,219.38
2018-05-06T10:46:33.719Z,219.38
2018-05-06T10:47:33.743Z,219.38
2018-05-06T10:48:33.797Z,219.38
2018-05-06T10:50:33.864Z,219.38
2018-05-06T10:51:33.902Z,219.38
2018-05-06T10:52:33.940Z,225.00
2018-05-06T10:53:33.980Z,219.38
2018-05-06T10:54:34.023Z,219.38
2018-05-06T10:55:34.062Z,219.38
2018-05-06T10:56:34.102Z,219.38
2018-05-06T10:57:34.140Z,219.38
2018-05-06T10:58:34.180Z,219.38
2018-05-06T10:59:34.224Z,219.38
2018-05-06T11:00:34.260Z,219.38
2018-05-06T11:01:34.303Z,219.38
2018-05-06T11:02:34.338Z,219.38
2018-05-06T11:03:34.386Z,219.38
2018-05-06T11:04:34.465Z,219.38
2018-05-06T11:05:34.458Z,225.00
2018-05-06T11:06:34.511Z,225.00
2018-05-06T11:07:34.537Z,225.00
2018-05-06T11:08:34.575Z,219.38
2018-05-06T11:09:34.668Z,225.00
2018-05-06T11:10:34.656Z,219.38
2018-05-06T11:11:34.695Z,219.38
2018-05-06T11:12:34.734Z,225.00
2018-05-06T11:13:34.776Z,225.00
2018-05-06T11:14:34.821Z,225.00
2018-05-06T11:15:34.855Z,225.00
2018-05-06T11:16:34.894Z,225.00
2018-05-06T11:17:34.938Z,225.00
2018-05-06T11:18:34.976Z,225.00
2018-05-06T11:19:35.016Z,225.00
2018-05-06T11:20:35.054Z,225.00
2018-05-06T11:21:35.110Z,225.00
2018-05-06T11:22:35.140Z,225.00
2018-05-06T11:23:35.176Z,225.00
2018-05-06T11:24:35.214Z,225.00
2018-05-06T11:25:35.260Z,230.63
2018-05-06T11:26:35.297Z,236.25
2018-05-06T11:27:35.337Z,230.63
2018-05-06T11:28:35.373Z,230.63
2018-05-06T11:29:35.415Z,230.63
2018-05-06T11:30:35.455Z,230.63
2018-05-06T11:31:35.505Z,230.63
2018-05-06T11:32:35.540Z,230.63
2018-05-06T11:33:35.576Z,230.63
2018-05-06T11:34:35.615Z,230.63
2018-05-06T11:35:35.663Z,230.63
2018-05-06T11:36:35.695Z,230.63
2018-05-06T11:37:35.739Z,230.63
2018-05-06T11:38:35.775Z,230.63
2018-05-06T11:39:35.834Z,230.63
2018-05-06T11:40:35.861Z,230.63
2018-05-06T11:41:35.898Z,230.63
2018-05-06T11:42:35.946Z,230.63
2018-05-06T11:43:35.976Z,230.63
2018-05-06T11:44:36.015Z,230.63
2018-05-06T11:45:36.057Z,230.63
2018-05-06T11:46:36.096Z,236.25
2018-05-06T11:47:36.154Z,236.25
2018-05-06T11:48:36.176Z,236.25
2018-05-06T11:49:36.221Z,236.25
2018-05-06T11:50:36.262Z,236.25
2018-05-06T11:51:36.297Z,236.25
2018-05-06T11:52:36.342Z,236.25
2018-05-06T11:53:36.377Z,236.25
2018-05-06T11:54:36.421Z,236.25
2018-05-06T11:55:36.462Z,236.25
2018-05-06T11:56:36.511Z,236.25
2018-05-06T11:57:36.539Z,236.25
2018-05-06T11:58:36.580Z,236.25
2018-05-06T11:59:36.623Z,236.25
2018-05-06T12:00:36.661Z,236.25
2018-05-06T12:01:36.699Z,236.25
2018-05-06T12:02:36.744Z,236.25
2018-05-06T12:03:36.781Z,236.25
2018-05-06T12:04:36.819Z,236.25
2018-05-06T12:05:36.859Z,236.25
2018-05-06T12:06:36.907Z,236.25
2018-05-06T12:07:36.942Z,236.25
2018-05-06T12:08:36.979Z,236.25
2018-05-06T12:09:37.020Z,236.25
2018-05-06T12:10:37.061Z,236.25
2018-05-06T12:11:37.109Z,236.25
2018-05-06T12:12:37.140Z,236.25
2018-05-06T12:13:37.183Z,236.25
2018-05-06T12:14:37.230Z,241.88
2018-05-06T12:15:37.262Z,241.88
2018-05-06T12:16:37.306Z,241.88
2018-05-06T12:17:37.342Z,241.88
2018-05-06T12:18:37.383Z,241.88
2018-05-06T12:19:37.427Z,241.88
2018-05-06T12:20:37.468Z,241.88
2018-05-06T12:21:37.505Z,241.88
2018-05-06T12:22:37.544Z,241.88
2018-05-06T12:23:37.589Z,241.88
2018-05-06T12:24:37.626Z,241.88
2018-05-06T12:25:37.667Z,241.88
2018-05-06T12:26:37.707Z,241.88
2018-05-06T12:27:37.748Z,241.88
2018-05-06T12:28:37.787Z,241.88
2018-05-06T12:29:37.828Z,241.88
2018-05-06T12:30:37.870Z,241.88
2018-05-06T12:31:37.912Z,241.88
2018-05-06T12:32:37.947Z,241.88
2018-05-06T12:33:38.021Z,241.88
2018-05-06T12:34:38.030Z,241.88
2018-05-06T12:35:38.070Z,241.88
2018-05-06T12:36:38.110Z,241.88
2018-05-06T12:37:38.151Z,241.88
2018-05-06T12:38:38.305Z,241.88
2018-05-06T12:39:38.232Z,241.88
2018-05-06T12:40:38.275Z,247.50
2018-05-06T12:41:38.313Z,247.50
2018-05-06T12:42:38.367Z,247.50
2018-05-06T12:43:38.394Z,247.50
2018-05-06T12:44:38.434Z,247.50
2018-05-06T12:45:38.474Z,247.50
2018-05-06T12:46:38.516Z,247.50
2018-05-06T12:47:38.557Z,247.50
2018-05-06T12:48:38.595Z,247.50
2018-05-06T12:49:38.638Z,247.50
2018-05-06T12:50:38.679Z,247.50
2018-05-06T12:51:38.717Z,247.50